createdAt,value
2022-08-12T00:00:02.336Z,100994.81
2022-08-12T00:02:46.295Z,100994.44
2022-08-12T00:05:31.881Z,100986.88
2022-08-12T00:08:14.519Z,100987.28
2022-08-12T00:10:56.666Z,100988.56
2022-08-12T00:13:38.807Z,100985.75
2022-08-12T00:16:21.195Z,100983.94
2022-08-12T00:19:03.271Z,100985.00
2022-08-12T00:21:48.222Z,100987.34
2022-08-12T00:24:30.301Z,100980.63
2022-08-12T00:27:13.221Z,100981.09
2022-08-12T00:29:55.739Z,100987.19
2022-08-12T00:32:38.452Z,100985.09
2022-08-12T00:35:23.539Z,100986.56
2022-08-12T00:38:12.797Z,100990.81
2022-08-12T00:40:55.716Z,100984.38
2022-08-12T00:43:27.419Z,100983.75
2022-08-12T00:46:10.067Z,100979.47
2022-08-12T00:48:40.056Z,100977.78
2022-08-12T00:51:11.640Z,100992.84
2022-08-12T00:53:44.087Z,100988.91
2022-08-12T00:56:13.734Z,100988.81
2022-08-12T00:58:50.911Z,100989.03
2022-08-12T01:01:21.128Z,100987.81
2022-08-12T01:04:04.668Z,100989.88
2022-08-12T01:06:54.132Z,100988.25
2022-08-12T01:09:39.389Z,100993.72
2022-08-12T01:12:09.466Z,100992.16
2022-08-12T01:14:40.900Z,100984.25
2022-08-12T01:17:10.868Z,100994.16
2022-08-12T01:19:40.723Z,100993.41
2022-08-12T01:22:25.864Z,100991.06
2022-08-12T01:25:08.194Z,100991.31
2022-08-12T01:27:39.193Z,100992.28
2022-08-12T01:30:11.520Z,100988.25
2022-08-12T01:32:43.647Z,100987.63
2022-08-12T01:35:16.371Z,100988.94
2022-08-12T01:37:50.041Z,100988.81
2022-08-12T01:40:36.046Z,100991.59
2022-08-12T01:43:09.676Z,100999.75
2022-08-12T01:45:44.294Z,100987.25
2022-08-12T01:48:22.731Z,100991.47
2022-08-12T01:51:04.544Z,100984.53
2022-08-12T01:53:50.168Z,100984.00
2022-08-12T01:56:25.970Z,100986.81
2022-08-12T01:59:12.642Z,100982.13
2022-08-12T02:01:43.400Z,100986.38
2022-08-12T02:04:34.149Z,100981.38
2022-08-12T02:07:23.910Z,100985.13
2022-08-12T02:10:49.470Z,100983.53
2022-08-12T02:13:13.395Z,100984.63
2022-08-12T02:15:48.484Z,100978.63
2022-08-12T02:18:29.498Z,100990.41
2022-08-12T02:21:04.937Z,100988.81
2022-08-12T02:23:36.384Z,100989.78
2022-08-12T02:26:08.529Z,100984.75
2022-08-12T02:28:42.283Z,100994.78
2022-08-12T02:31:12.629Z,100997.53
2022-08-12T02:33:42.827Z,100997.75
2022-08-12T02:36:12.855Z,100993.50
2022-08-12T02:38:45.556Z,100991.03
2022-08-12T02:41:18.773Z,100994.66
2022-08-12T02:43:54.388Z,100996.81
2022-08-12T02:46:29.203Z,100996.06
2022-08-12T02:49:01.900Z,100988.28
2022-08-12T02:51:33.871Z,100992.03
2022-08-12T02:54:06.575Z,100999.78
2022-08-12T02:56:37.817Z,100996.28
2022-08-12T02:59:12.375Z,100996.19
2022-08-12T03:01:48.137Z,100995.88
2022-08-12T03:04:23.245Z,100988.59
2022-08-12T03:06:56.936Z,100985.91
2022-08-12T03:09:27.582Z,100995.09
2022-08-12T03:12:09.607Z,100989.66
2022-08-12T03:14:47.493Z,100994.44
2022-08-12T03:17:20.950Z,100996.38
2022-08-12T03:20:09.473Z,101002.00
2022-08-12T03:22:42.681Z,101001.72
2022-08-12T03:25:16.325Z,100997.34
2022-08-12T03:27:49.913Z,100997.88
2022-08-12T03:30:23.618Z,100997.63
2022-08-12T03:32:54.459Z,100998.81
2022-08-12T03:35:40.980Z,101000.94
2022-08-12T03:38:16.128Z,101002.00
2022-08-12T03:41:07.699Z,101003.16
2022-08-12T03:44:00.257Z,100999.53
2022-08-12T03:46:49.001Z,101004.97
2022-08-12T03:49:31.329Z,101002.41
2022-08-12T03:52:14.014Z,101000.94
2022-08-12T03:54:56.119Z,101007.50
2022-08-12T03:57:38.378Z,101004.81
2022-08-12T04:00:26.004Z,101008.44
2022-08-12T04:03:01.853Z,101009.50
2022-08-12T04:05:56.204Z,100998.19
2022-08-12T04:08:25.984Z,101002.22
2022-08-12T04:11:08.992Z,101004.25
2022-08-12T04:13:38.779Z,101007.09
2022-08-12T04:16:10.188Z,101008.56
2022-08-12T04:18:42.910Z,101009.41
2022-08-12T04:21:16.085Z,101005.88
2022-08-12T04:23:48.574Z,101009.06
2022-08-12T04:26:19.056Z,101006.28
2022-08-12T04:28:48.758Z,101002.88
2022-08-12T04:31:18.546Z,101003.25
2022-08-12T04:33:50.947Z,101008.53
2022-08-12T04:36:20.817Z,101002.63
2022-08-12T04:38:50.604Z,101006.78
2022-08-12T04:41:21.316Z,101006.88
2022-08-12T04:43:54.506Z,101002.91
2022-08-12T04:46:34.602Z,101011.97
2022-08-12T04:49:07.991Z,101002.91
2022-08-12T04:51:38.155Z,101009.00
2022-08-12T04:54:08.118Z,101008.44
2022-08-12T04:56:37.788Z,101010.38
2022-08-12T04:59:07.805Z,101014.75
2022-08-12T05:01:37.469Z,101006.94
2022-08-12T05:04:10.917Z,101010.16
2022-08-12T05:06:40.794Z,101004.94
2022-08-12T05:09:10.980Z,101001.50
2022-08-12T05:11:53.706Z,101003.97
2022-08-12T05:14:24.021Z,101002.38
2022-08-12T05:16:53.786Z,100996.19
2022-08-12T05:19:26.751Z,101003.00
2022-08-12T05:21:56.535Z,100995.00
2022-08-12T05:24:26.233Z,101000.91
2022-08-12T05:26:56.129Z,101000.16
2022-08-12T05:30:06.267Z,101001.78
2022-08-12T05:32:20.687Z,101005.38
2022-08-12T05:34:53.496Z,101010.63
2022-08-12T05:37:23.723Z,101007.75
2022-08-12T05:39:53.647Z,101015.94
2022-08-12T05:42:32.489Z,101010.50
2022-08-12T05:45:04.512Z,101013.84
2022-08-12T05:47:44.774Z,101012.91
2022-08-12T05:50:26.555Z,101013.25
2022-08-12T05:52:56.185Z,101014.22
2022-08-12T05:55:31.095Z,101015.59
2022-08-12T05:58:01.674Z,101010.72
2022-08-12T06:00:32.079Z,101008.06
2022-08-12T06:03:03.626Z,101010.19
2022-08-12T06:05:51.810Z,101015.19
2022-08-12T06:08:26.818Z,101008.38
2022-08-12T06:10:57.193Z,101017.00
2022-08-12T06:13:52.925Z,101012.25
2022-08-12T06:16:18.926Z,101018.53
2022-08-12T06:18:48.952Z,101017.56
2022-08-12T06:21:23.424Z,101021.00
2022-08-12T06:23:54.502Z,101018.53
2022-08-12T06:26:24.151Z,101012.78
2022-08-12T06:28:54.380Z,101016.13
2022-08-12T06:31:26.966Z,101018.56
2022-08-12T06:35:09.167Z,101018.44
2022-08-12T06:36:50.533Z,101007.31
2022-08-12T06:39:20.477Z,101008.94
2022-08-12T06:42:32.102Z,101011.38
2022-08-12T06:44:52.540Z,101013.31
2022-08-12T06:47:22.200Z,101008.41
2022-08-12T06:49:52.492Z,101005.53
2022-08-12T06:52:25.128Z,101003.81
2022-08-12T06:54:55.787Z,101004.09
2022-08-12T06:58:05.549Z,100993.91
2022-08-12T07:00:19.316Z,101000.25
2022-08-12T07:02:49.060Z,101001.31
2022-08-12T07:05:24.787Z,101004.72
2022-08-12T07:08:12.909Z,101002.25
2022-08-12T07:10:45.366Z,101000.44
2022-08-12T07:13:15.203Z,101000.19
2022-08-12T07:15:45.352Z,101001.94
2022-08-12T07:18:19.939Z,101006.00
2022-08-12T07:20:52.948Z,101007.03
2022-08-12T07:23:25.522Z,101004.22
2022-08-12T07:25:58.305Z,101004.81
2022-08-12T07:28:31.056Z,101007.22
2022-08-12T07:31:00.912Z,101009.06
2022-08-12T07:33:32.926Z,101011.50
2022-08-12T07:36:06.217Z,101007.91
2022-08-12T07:38:42.350Z,101016.59
2022-08-12T07:41:15.529Z,101012.63
2022-08-12T07:43:47.422Z,101012.38
2022-08-12T07:46:20.499Z,101010.97
2022-08-12T07:48:52.345Z,101003.34
2022-08-12T07:51:24.857Z,101007.09
2022-08-12T07:54:00.749Z,101004.03
2022-08-12T07:56:33.845Z,101000.47
2022-08-12T07:59:04.772Z,100998.97
2022-08-12T08:01:38.303Z,101005.13
2022-08-12T08:04:23.123Z,100996.00
2022-08-12T08:06:53.174Z,100999.59
2022-08-12T08:09:26.829Z,100999.88
2022-08-12T08:12:09.658Z,100991.81
2022-08-12T08:14:51.981Z,100997.63
2022-08-12T08:17:23.461Z,100996.84
2022-08-12T08:20:03.733Z,101007.44
2022-08-12T08:22:41.419Z,101004.38
2022-08-12T08:25:36.315Z,101002.16
2022-08-12T08:28:06.364Z,100998.78
2022-08-12T08:30:38.350Z,100994.50
2022-08-12T08:33:24.456Z,100992.28
2022-08-12T08:36:00.877Z,100999.53
2022-08-12T08:38:35.203Z,100998.16
2022-08-12T08:42:16.578Z,100991.59
2022-08-12T08:44:11.916Z,100995.75
2022-08-12T08:46:43.951Z,100989.59
2022-08-12T08:49:16.124Z,100998.94
2022-08-12T08:51:48.328Z,100991.19
2022-08-12T08:54:19.890Z,100992.72
2022-08-12T08:56:54.026Z,100974.72
2022-08-12T08:59:24.474Z,100983.47
2022-08-12T09:01:54.505Z,100984.38
2022-08-12T09:05:11.902Z,100984.59
2022-08-12T09:10:04.034Z,100976.16
2022-08-12T09:12:54.553Z,100978.22
2022-08-12T09:15:35.665Z,100978.91
2022-08-12T09:18:09.033Z,100970.81
2022-08-12T09:20:40.182Z,100969.44
2022-08-12T09:23:59.128Z,100970.97
2022-08-12T09:26:04.902Z,100964.69
2022-08-12T09:32:03.216Z,100960.56
2022-08-12T09:34:26.181Z,100961.88
2022-08-12T09:37:00.408Z,100951.31
2022-08-12T09:40:05.197Z,100951.09
2022-08-12T09:42:43.511Z,100954.59
2022-08-12T09:46:06.329Z,100954.53
2022-08-12T09:48:20.023Z,100948.88
2022-08-12T09:50:55.604Z,100948.94
2022-08-12T09:54:34.137Z,100953.75
2022-08-12T09:56:58.244Z,100963.75
2022-08-12T09:59:10.063Z,100951.84
2022-08-12T10:02:41.928Z,100954.69
2022-08-12T10:04:32.842Z,100944.25
2022-08-12T10:07:03.075Z,100942.50
2022-08-12T10:09:57.387Z,100940.03
2022-08-12T10:12:37.426Z,100940.88
2022-08-12T10:15:08.035Z,100938.56
2022-08-12T10:18:05.965Z,100918.81
2022-08-12T10:20:37.508Z,100919.41
2022-08-12T10:23:07.242Z,100916.94
2022-08-12T10:26:35.409Z,100917.22
2022-08-12T10:29:02.811Z,100916.00
2022-08-12T10:32:19.736Z,100917.44
2022-08-12T10:34:27.042Z,100908.41
2022-08-12T10:37:10.744Z,100903.03
2022-08-12T10:40:01.022Z,100901.44
2022-08-12T10:42:54.114Z,100897.41
2022-08-12T10:45:23.976Z,100899.56
2022-08-12T10:48:15.945Z,100895.22
2022-08-12T10:51:01.500Z,100887.72
2022-08-12T10:53:45.504Z,100887.13
2022-08-12T10:56:17.171Z,100890.50
2022-08-12T10:58:48.430Z,100886.75
2022-08-12T11:01:49.294Z,100874.38
2022-08-12T11:04:26.953Z,100869.38
2022-08-12T11:08:37.848Z,100866.50
2022-08-12T11:09:59.984Z,100861.97
2022-08-12T11:12:54.986Z,100869.56
2022-08-12T11:15:33.174Z,100864.56
2022-08-12T11:18:17.846Z,100857.69
2022-08-12T11:20:49.255Z,100852.13
2022-08-12T11:23:37.135Z,100846.53
2022-08-12T11:26:09.044Z,100839.91
2022-08-12T11:28:39.946Z,100839.94
2022-08-12T11:31:14.269Z,100843.34
2022-08-12T11:34:05.706Z,100835.16
2022-08-12T11:36:39.489Z,100829.09
2022-08-12T11:39:13.075Z,100837.75
2022-08-12T11:41:43.226Z,100830.44
2022-08-12T11:44:36.812Z,100831.94
2022-08-12T11:47:09.574Z,100818.88
2022-08-12T11:49:39.475Z,100822.06
2022-08-12T11:52:35.319Z,100816.59
2022-08-12T11:55:01.616Z,100807.47
2022-08-12T11:58:17.199Z,100816.69
2022-08-12T12:02:01.267Z,100812.34
2022-08-12T12:03:12.327Z,100812.38
2022-08-12T12:05:46.978Z,100812.16
2022-08-12T12:08:38.112Z,100813.59
2022-08-12T12:11:14.971Z,100811.06
2022-08-12T12:14:07.684Z,100802.69
2022-08-12T12:16:38.312Z,100805.88
2022-08-12T12:19:10.586Z,100801.72
2022-08-12T12:21:47.376Z,100806.78
2022-08-12T12:24:21.831Z,100794.56
2022-08-12T12:27:00.411Z,100798.78
2022-08-12T12:30:14.096Z,100803.81
2022-08-12T12:32:28.962Z,100787.91
2022-08-12T12:35:14.352Z,100786.00
2022-08-12T12:38:03.616Z,100784.16
2022-08-12T12:40:35.642Z,100775.34
2022-08-12T12:43:13.774Z,100778.94
2022-08-12T12:45:46.379Z,100780.44
2022-08-12T12:48:17.737Z,100774.53
2022-08-12T12:51:09.434Z,100775.63
2022-08-12T12:54:08.845Z,100768.63
2022-08-12T12:56:33.943Z,100762.16
2022-08-12T12:59:07.608Z,100763.44
2022-08-12T13:02:08.102Z,100756.72
2022-08-12T13:04:38.780Z,100757.38
2022-08-12T13:07:09.464Z,100753.59
2022-08-12T13:09:39.227Z,100755.31
2022-08-12T13:12:12.611Z,100751.69
2022-08-12T13:14:45.003Z,100750.25
2022-08-12T13:17:16.669Z,100737.25
2022-08-12T13:19:49.957Z,100742.28
2022-08-12T13:22:21.633Z,100741.66
2022-08-12T13:24:56.929Z,100742.06
2022-08-12T13:27:34.428Z,100736.84
2022-08-12T13:30:11.565Z,100740.00
2022-08-12T13:32:43.629Z,100731.59
2022-08-12T13:35:33.223Z,100738.72
2022-08-12T13:38:34.685Z,100738.09
2022-08-12T13:41:11.039Z,100732.84
2022-08-12T13:43:41.992Z,100734.75
2022-08-12T13:46:16.515Z,100733.47
2022-08-12T13:48:46.192Z,100733.69
2022-08-12T13:51:21.028Z,100728.22
2022-08-12T13:53:58.299Z,100730.53
2022-08-12T13:56:34.673Z,100729.69
2022-08-12T13:59:08.104Z,100727.78
2022-08-12T14:01:41.313Z,100733.69
2022-08-12T14:04:11.642Z,100729.06
2022-08-12T14:06:41.966Z,100723.38
2022-08-12T14:09:17.757Z,100711.22
2022-08-12T14:11:58.356Z,100723.59
2022-08-12T14:14:31.153Z,100721.28
2022-08-12T14:17:10.374Z,100704.25
2022-08-12T14:20:00.993Z,100704.25
2022-08-12T14:22:32.112Z,100714.97
2022-08-12T14:25:03.083Z,100709.50
2022-08-12T14:28:03.255Z,100697.56
2022-08-12T14:30:29.653Z,100709.50
2022-08-12T14:33:03.431Z,100704.69
2022-08-12T14:35:41.200Z,100699.00
2022-08-12T14:38:26.183Z,100701.13
2022-08-12T14:40:59.264Z,100712.66
2022-08-12T14:43:58.734Z,100711.19
2022-08-12T14:46:24.344Z,100702.75
2022-08-12T14:48:57.023Z,100702.97
2022-08-12T14:52:48.298Z,100702.75
2022-08-12T14:57:19.870Z,100707.84
2022-08-12T15:00:05.947Z,100702.16
2022-08-12T15:02:35.746Z,100701.09
2022-08-12T15:05:08.858Z,100701.31
2022-08-12T15:07:49.957Z,100699.84
2022-08-12T15:10:25.381Z,100696.06
2022-08-12T15:13:07.213Z,100688.91
2022-08-12T15:15:43.626Z,100691.47
2022-08-12T15:18:20.845Z,100698.16
2022-08-12T15:20:55.834Z,100702.50
2022-08-12T15:23:32.765Z,100693.75
2022-08-12T15:26:04.936Z,100688.06
2022-08-12T15:28:37.026Z,100687.22
2022-08-12T15:31:09.587Z,100680.94
2022-08-12T15:33:58.172Z,100686.56
2022-08-12T15:36:54.183Z,100678.16
2022-08-12T15:39:20.187Z,100675.63
2022-08-12T15:41:55.304Z,100671.66
2022-08-12T15:44:38.022Z,100673.31
2022-08-12T15:47:12.308Z,100669.13
2022-08-12T15:50:00.015Z,100674.56
2022-08-12T15:52:33.383Z,100674.13
2022-08-12T15:55:06.346Z,100670.56
2022-08-12T15:57:53.206Z,100679.38
2022-08-12T16:00:33.105Z,100672.63
2022-08-12T16:03:05.499Z,100671.19
2022-08-12T16:06:17.020Z,100672.84
2022-08-12T16:08:35.753Z,100671.59
2022-08-12T16:11:16.089Z,100674.94
2022-08-12T16:13:48.719Z,100670.31
2022-08-12T16:16:23.501Z,100668.00
2022-08-12T16:18:59.550Z,100668.22
2022-08-12T16:21:52.682Z,100667.56
2022-08-12T16:24:22.101Z,100665.88
2022-08-12T16:26:54.149Z,100653.91
2022-08-12T16:29:29.511Z,100656.25
2022-08-12T16:32:23.924Z,100656.63
2022-08-12T16:34:55.899Z,100659.56
2022-08-12T16:38:04.783Z,100654.94
2022-08-12T16:40:18.876Z,100651.16
2022-08-12T16:42:53.982Z,100665.66
2022-08-12T16:46:05.532Z,100646.06
2022-08-12T16:48:34.972Z,100647.59
2022-08-12T16:51:09.537Z,100643.34
2022-08-12T16:53:44.419Z,100642.09
2022-08-12T16:56:18.395Z,100643.97
2022-08-12T16:58:52.114Z,100640.41
2022-08-12T17:01:22.237Z,100633.91
2022-08-12T17:04:04.558Z,100634.53
2022-08-12T17:06:43.281Z,100638.78
2022-08-12T17:09:17.719Z,100637.47
2022-08-12T17:11:50.744Z,100647.53
2022-08-12T17:14:23.472Z,100634.75
2022-08-12T17:16:55.601Z,100639.56
2022-08-12T17:19:54.666Z,100632.81
2022-08-12T17:22:16.865Z,100634.09
2022-08-12T17:24:55.884Z,100633.03
2022-08-12T17:27:30.831Z,100634.47
2022-08-12T17:30:04.826Z,100640.94
2022-08-12T17:32:36.936Z,100636.75
2022-08-12T17:35:20.638Z,100637.97
2022-08-12T17:37:54.674Z,100640.06
2022-08-12T17:40:36.332Z,100653.03
2022-08-12T17:43:56.784Z,100647.56
2022-08-12T17:46:02.027Z,100647.34
2022-08-12T17:48:34.781Z,100646.50
2022-08-12T17:51:15.517Z,100639.97
2022-08-12T17:54:10.766Z,100646.47
2022-08-12T17:56:39.332Z,100640.53
2022-08-12T17:59:13.117Z,100643.03
2022-08-12T18:01:46.128Z,100649.75
2022-08-12T18:04:22.798Z,100656.88
2022-08-12T18:07:06.199Z,100662.53
2022-08-12T18:09:40.994Z,100657.66
2022-08-12T18:12:26.916Z,100654.47
2022-08-12T18:15:03.173Z,100655.88
2022-08-12T18:17:40.970Z,100662.53
2022-08-12T18:20:15.756Z,100659.94
2022-08-12T18:22:46.760Z,100661.13
2022-08-12T18:26:12.381Z,100667.44
2022-08-12T18:28:30.857Z,100673.44
2022-08-12T18:31:04.552Z,100666.59
2022-08-12T18:33:44.013Z,100669.47
2022-08-12T18:36:22.503Z,100671.66
2022-08-12T18:38:59.495Z,100674.38
2022-08-12T18:41:33.653Z,100678.78
2022-08-12T18:44:09.424Z,100688.31
2022-08-12T18:46:54.493Z,100686.81
2022-08-12T18:49:33.391Z,100686.06
2022-08-12T18:52:11.942Z,100686.53
2022-08-12T18:54:48.970Z,100687.16
2022-08-12T18:57:59.702Z,100695.13
2022-08-12T19:00:21.046Z,100687.25
2022-08-12T19:02:54.852Z,100697.03
2022-08-12T19:05:45.803Z,100692.56
2022-08-12T19:08:14.570Z,100691.81
2022-08-12T19:10:48.073Z,100693.88
2022-08-12T19:13:33.919Z,100697.03
2022-08-12T19:16:12.602Z,100697.97
2022-08-12T19:18:45.737Z,100700.72
2022-08-12T19:21:20.187Z,100702.81
2022-08-12T19:24:11.243Z,100710.63
2022-08-12T19:26:38.825Z,100701.69
2022-08-12T19:29:10.762Z,100703.78
2022-08-12T19:31:57.449Z,100708.34
2022-08-12T19:37:38.356Z,100722.28
2022-08-12T19:40:30.809Z,100717.06
2022-08-12T19:43:19.399Z,100719.22
2022-08-12T19:45:53.726Z,100728.38
2022-08-12T19:48:24.938Z,100724.66
2022-08-12T19:51:08.622Z,100716.69
2022-08-12T19:53:56.681Z,100722.63
2022-08-12T19:56:28.110Z,100731.56
2022-08-12T19:59:20.826Z,100726.00
2022-08-12T20:02:02.563Z,100730.50
2022-08-12T20:04:37.494Z,100735.34
2022-08-12T20:07:23.331Z,100726.38
2022-08-12T20:09:54.188Z,100727.53
2022-08-12T20:12:31.732Z,100736.63
2022-08-12T20:15:05.386Z,100731.34
2022-08-12T20:17:36.398Z,100734.47
2022-08-12T20:20:27.517Z,100738.66
2022-08-12T20:23:00.638Z,100739.63
2022-08-12T20:25:52.495Z,100736.03
2022-08-12T20:28:28.797Z,100738.03
2022-08-12T20:30:59.816Z,100733.41
2022-08-12T20:33:32.599Z,100739.91
2022-08-12T20:36:40.881Z,100737.16
2022-08-12T20:39:35.978Z,100740.59
2022-08-12T20:42:07.811Z,100739.00
2022-08-12T20:44:40.247Z,100738.63
2022-08-12T20:47:18.243Z,100743.09
2022-08-12T20:49:55.649Z,100738.19
2022-08-12T20:52:34.248Z,100739.97
2022-08-12T20:55:17.118Z,100739.03
2022-08-12T20:58:02.660Z,100752.44
2022-08-12T21:00:34.871Z,100743.97
2022-08-12T21:03:18.181Z,100751.41
2022-08-12T21:06:12.300Z,100742.50
2022-08-12T21:08:43.938Z,100745.84
2022-08-12T21:11:19.552Z,100738.94
2022-08-12T21:13:49.396Z,100746.78
2022-08-12T21:16:35.538Z,100750.78
2022-08-12T21:19:08.052Z,100752.81
2022-08-12T21:21:50.287Z,100751.69
2022-08-12T21:24:20.668Z,100756.97
2022-08-12T21:27:07.349Z,100752.44
2022-08-12T21:29:49.950Z,100754.88
2022-08-12T21:32:47.061Z,100759.13
2022-08-12T21:35:17.521Z,100764.41
2022-08-12T21:37:53.225Z,100755.94
2022-08-12T21:40:32.346Z,100758.34
2022-08-12T21:43:10.065Z,100759.22
2022-08-12T21:45:47.492Z,100764.31
2022-08-12T21:48:30.551Z,100760.66
2022-08-12T21:51:00.235Z,100768.44
2022-08-12T21:54:06.091Z,100773.28
2022-08-12T21:56:34.407Z,100763.75
2022-08-12T21:59:14.411Z,100774.38
2022-08-12T22:01:48.971Z,100777.06
2022-08-12T22:04:32.227Z,100778.75
2022-08-12T22:07:03.192Z,100770.94
2022-08-12T22:09:42.664Z,100772.63
2022-08-12T22:12:26.185Z,100773.78
2022-08-12T22:14:59.624Z,100773.47
2022-08-12T22:17:50.119Z,100778.97
2022-08-12T22:20:21.828Z,100773.75
2022-08-12T22:22:56.468Z,100780.38
2022-08-12T22:25:27.756Z,100778.50
2022-08-12T22:28:10.206Z,100782.28
2022-08-12T22:31:01.121Z,100781.13
2022-08-12T22:33:30.880Z,100781.81
2022-08-12T22:36:28.796Z,100781.34
2022-08-12T22:39:01.694Z,100784.56
2022-08-12T22:41:43.824Z,100780.34
2022-08-12T22:44:27.906Z,100779.19
2022-08-12T22:47:12.844Z,100777.44
2022-08-12T22:50:03.759Z,100774.28
2022-08-12T22:52:35.127Z,100782.34
2022-08-12T22:55:04.829Z,100773.97
2022-08-12T22:57:49.824Z,100777.31
2022-08-12T23:00:28.083Z,100778.72
2022-08-12T23:03:03.335Z,100781.78
2022-08-12T23:05:57.130Z,100775.22
2022-08-12T23:11:04.553Z,100771.63
2022-08-12T23:13:48.658Z,100770.31
2022-08-12T23:16:29.323Z,100768.03
2022-08-12T23:19:10.443Z,100768.53
2022-08-12T23:22:03.969Z,100771.59
2022-08-12T23:24:55.654Z,100763.97
2022-08-12T23:27:51.119Z,100760.81
2022-08-12T23:30:32.320Z,100767.56
2022-08-12T23:33:13.121Z,100765.09
2022-08-12T23:35:59.347Z,100765.38
2022-08-12T23:38:34.583Z,100765.16
2022-08-12T23:41:05.684Z,100762.00
2022-08-12T23:43:39.847Z,100763.97
2022-08-12T23:46:11.662Z,100757.06
2022-08-12T23:48:47.690Z,100765.47
2022-08-12T23:51:25.236Z,100764.34
2022-08-12T23:53:59.878Z,100762.66
2022-08-12T23:56:33.639Z,100763.88
2022-08-12T23:59:04.134Z,100758.66
